Mirada, California
Current Conditions -  °F | °C
As of 3:53 AM on Sunday 25 Jan 2015 (Local Time) from KFUL Reporting Station
Clear Clear  
Wind Chill: 59°   Ceiling: Unl
Heat Index: 59°   Visibility: 10mi
Dew Point: 26°   Wind: 0mph
Humidity: 28%   Direction: NA
Pressure: 30"   Gusts: NA
Location:  33.9021°N, 118.01°W
Report Text: KFUL 251153Z 00000KT 10SM CLR 15/M03 A3000 RMK AO2 SLP158 T01501033 10244 20150 58004
Loading
Personal Weather Stations






























Interactive Weather Map New forecast layout! Learn more

10-Day Weather Forecast

Advertisements
Track Severe Weather on mobile